sensor_id;sensor_type;location;lat;lon;timestamp;temperature;humidity
44894;DHT22;30625;52.206;21.030;2023-04-15T00:00:16;11.30;96.60
44894;DHT22;30625;52.206;21.030;2023-04-15T00:02:46;11.20;96.60
44894;DHT22;30625;52.206;21.030;2023-04-15T00:05:12;11.20;96.80
44894;DHT22;30625;52.206;21.030;2023-04-15T00:07:38;11.20;96.50
44894;DHT22;30625;52.206;21.030;2023-04-15T00:10:04;11.10;96.40
44894;DHT22;30625;52.206;21.030;2023-04-15T00:12:30;11.20;96.50
44894;DHT22;30625;52.206;21.030;2023-04-15T00:14:56;11.20;96.60
44894;DHT22;30625;52.206;21.030;2023-04-15T00:17:23;11.90;97.10
44894;DHT22;30625;52.206;21.030;2023-04-15T00:19:49;11.10;97.70
44894;DHT22;30625;52.206;21.030;2023-04-15T00:22:15;11.10;98.80
44894;DHT22;30625;52.206;21.030;2023-04-15T00:24:41;12.70;99.90
44894;DHT22;30625;52.206;21.030;2023-04-15T00:27:07;10.70;99.90
44894;DHT22;30625;52.206;21.030;2023-04-15T00:29:33;10.70;99.90
44894;DHT22;30625;52.206;21.030;2023-04-15T00:31:59;10.70;99.90
44894;DHT22;30625;52.206;21.030;2023-04-15T00:34:26;10.30;99.90
44894;DHT22;30625;52.206;21.030;2023-04-15T00:36:52;10.60;99.90
44894;DHT22;30625;52.206;21.030;2023-04-15T00:39:18;10.60;99.90
44894;DHT22;30625;52.206;21.030;2023-04-15T00:41:44;10.60;99.90
44894;DHT22;30625;52.206;21.030;2023-04-15T00:44:11;10.60;99.90
44894;DHT22;30625;52.206;21.030;2023-04-15T00:46:37;10.60;99.90
44894;DHT22;30625;52.206;21.030;2023-04-15T00:49:04;10.60;99.90
44894;DHT22;30625;52.206;21.030;2023-04-15T00:51:31;10.50;99.90
44894;DHT22;30625;52.206;21.030;2023-04-15T00:53:58;10.40;99.90
44894;DHT22;30625;52.206;21.030;2023-04-15T00:56:25;10.60;99.90
44894;DHT22;30625;52.206;21.030;2023-04-15T00:58:51;11.30;99.90
44894;DHT22;30625;52.206;21.030;2023-04-15T01:01:21;11.00;99.90
44894;DHT22;30625;52.206;21.030;2023-04-15T01:03:50;10.50;99.90
44894;DHT22;30625;52.206;21.030;2023-04-15T01:06:17;10.60;99.90
44894;DHT22;30625;52.206;21.030;2023-04-15T01:08:43;11.40;99.90
44894;DHT22;30625;52.206;21.030;2023-04-15T01:11:11;10.50;99.90
44894;DHT22;30625;52.206;21.030;2023-04-15T01:13:37;10.50;99.90
44894;DHT22;30625;52.206;21.030;2023-04-15T01:16:03;12.60;99.90
44894;DHT22;30625;52.206;21.030;2023-04-15T01:18:29;10.40;99.90
44894;DHT22;30625;52.206;21.030;2023-04-15T01:20:56;10.40;99.90
44894;DHT22;30625;52.206;21.030;2023-04-15T01:23:22;10.30;99.90
44894;DHT22;30625;52.206;21.030;2023-04-15T01:25:49;10.20;99.90
44894;DHT22;30625;52.206;21.030;2023-04-15T01:28:14;10.00;99.90
44894;DHT22;30625;52.206;21.030;2023-04-15T01:30:41;10.00;99.90
44894;DHT22;30625;52.206;21.030;2023-04-15T01:33:07;9.90;99.90
44894;DHT22;30625;52.206;21.030;2023-04-15T01:35:33;9.90;99.90
44894;DHT22;30625;52.206;21.030;2023-04-15T01:38:04;10.80;99.90
44894;DHT22;30625;52.206;21.030;2023-04-15T01:40:31;9.60;99.90
44894;DHT22;30625;52.206;21.030;2023-04-15T01:42:56;9.20;99.90
44894;DHT22;30625;52.206;21.030;2023-04-15T01:45:22;9.80;99.90
44894;DHT22;30625;52.206;21.030;2023-04-15T01:47:48;9.20;99.90
44894;DHT22;30625;52.206;21.030;2023-04-15T01:50:14;11.10;99.90
44894;DHT22;30625;52.206;21.030;2023-04-15T01:52:39;11.00;99.90
44894;DHT22;30625;52.206;21.030;2023-04-15T01:55:06;9.30;99.90
44894;DHT22;30625;52.206;21.030;2023-04-15T01:57:32;9.10;99.90
44894;DHT22;30625;52.206;21.030;2023-04-15T01:59:58;10.60;99.90
44894;DHT22;30625;52.206;21.030;2023-04-15T02:02:24;9.10;99.90
44894;DHT22;30625;52.206;21.030;2023-04-15T02:04:50;9.10;99.90
44894;DHT22;30625;52.206;21.030;2023-04-15T02:07:16;9.10;99.90
44894;DHT22;30625;52.206;21.030;2023-04-15T02:09:42;9.10;99.90
44894;DHT22;30625;52.206;21.030;2023-04-15T02:12:08;7.90;99.90
44894;DHT22;30625;52.206;21.030;2023-04-15T02:14:34;9.20;99.90
44894;DHT22;30625;52.206;21.030;2023-04-15T02:17:00;10.60;99.90
44894;DHT22;30625;52.206;21.030;2023-04-15T02:19:32;9.10;99.90
44894;DHT22;30625;52.206;21.030;2023-04-15T02:21:58;9.10;99.90
44894;DHT22;30625;52.206;21.030;2023-04-15T02:24:26;9.10;99.90
44894;DHT22;30625;52.206;21.030;2023-04-15T02:26:52;9.10;99.90
44894;DHT22;30625;52.206;21.030;2023-04-15T02:29:17;9.10;99.90
44894;DHT22;30625;52.206;21.030;2023-04-15T02:31:43;9.20;99.90
44894;DHT22;30625;52.206;21.030;2023-04-15T02:34:09;9.20;99.90
44894;DHT22;30625;52.206;21.030;2023-04-15T02:36:35;10.90;99.90
44894;DHT22;30625;52.206;21.030;2023-04-15T02:39:01;9.10;99.90
44894;DHT22;30625;52.206;21.030;2023-04-15T02:41:27;9.10;99.90
44894;DHT22;30625;52.206;21.030;2023-04-15T02:43:54;9.20;99.90
44894;DHT22;30625;52.206;21.030;2023-04-15T02:46:20;10.10;99.90
44894;DHT22;30625;52.206;21.030;2023-04-15T02:48:47;9.20;99.90
44894;DHT22;30625;52.206;21.030;2023-04-15T02:51:19;9.20;99.90
44894;DHT22;30625;52.206;21.030;2023-04-15T02:53:48;9.10;99.90
44894;DHT22;30625;52.206;21.030;2023-04-15T02:56:15;9.10;99.90
44894;DHT22;30625;52.206;21.030;2023-04-15T02:58:43;9.10;99.90
44894;DHT22;30625;52.206;21.030;2023-04-15T03:01:09;9.10;99.90
44894;DHT22;30625;52.206;21.030;2023-04-15T03:03:35;9.20;99.90
44894;DHT22;30625;52.206;21.030;2023-04-15T03:06:00;9.10;99.90
44894;DHT22;30625;52.206;21.030;2023-04-15T03:08:26;9.20;99.90
44894;DHT22;30625;52.206;21.030;2023-04-15T03:10:52;9.10;99.90
44894;DHT22;30625;52.206;21.030;2023-04-15T03:13:19;9.10;99.90
44894;DHT22;30625;52.206;21.030;2023-04-15T03:15:46;9.20;99.90
44894;DHT22;30625;52.206;21.030;2023-04-15T03:18:11;9.20;99.90
44894;DHT22;30625;52.206;21.030;2023-04-15T03:20:37;9.20;99.90
44894;DHT22;30625;52.206;21.030;2023-04-15T03:23:03;9.30;99.90
44894;DHT22;30625;52.206;21.030;2023-04-15T03:25:28;9.30;99.90
44894;DHT22;30625;52.206;21.030;2023-04-15T03:27:54;9.30;99.90
44894;DHT22;30625;52.206;21.030;2023-04-15T03:30:19;9.40;99.90
44894;DHT22;30625;52.206;21.030;2023-04-15T03:32:45;9.30;99.90
44894;DHT22;30625;52.206;21.030;2023-04-15T03:35:11;9.40;99.90
44894;DHT22;30625;52.206;21.030;2023-04-15T03:37:37;9.30;99.90
44894;DHT22;30625;52.206;21.030;2023-04-15T03:40:03;10.20;99.90
44894;DHT22;30625;52.206;21.030;2023-04-15T03:42:28;9.30;99.90
44894;DHT22;30625;52.206;21.030;2023-04-15T03:44:54;9.30;99.90
44894;DHT22;30625;52.206;21.030;2023-04-15T03:47:20;9.30;99.90
44894;DHT22;30625;52.206;21.030;2023-04-15T03:49:46;9.50;99.90
44894;DHT22;30625;52.206;21.030;2023-04-15T03:52:11;9.40;99.90
44894;DHT22;30625;52.206;21.030;2023-04-15T03:54:37;9.30;99.90
44894;DHT22;30625;52.206;21.030;2023-04-15T03:57:02;9.30;99.90
44894;DHT22;30625;52.206;21.030;2023-04-15T03:59:28;9.30;99.90
44894;DHT22;30625;52.206;21.030;2023-04-15T04:01:53;9.30;99.90
44894;DHT22;30625;52.206;21.030;2023-04-15T04:04:19;9.40;99.90
44894;DHT22;30625;52.206;21.030;2023-04-15T04:06:45;9.30;99.90
44894;DHT22;30625;52.206;21.030;2023-04-15T04:09:10;9.30;99.90
44894;DHT22;30625;52.206;21.030;2023-04-15T04:11:36;10.60;99.90
44894;DHT22;30625;52.206;21.030;2023-04-15T04:14:02;9.20;99.90
44894;DHT22;30625;52.206;21.030;2023-04-15T04:16:27;9.20;99.90
44894;DHT22;30625;52.206;21.030;2023-04-15T04:18:53;9.20;99.90
44894;DHT22;30625;52.206;21.030;2023-04-15T04:21:19;9.20;99.90
44894;DHT22;30625;52.206;21.030;2023-04-15T04:23:45;10.30;99.90
44894;DHT22;30625;52.206;21.030;2023-04-15T04:26:11;9.20;99.90
44894;DHT22;30625;52.206;21.030;2023-04-15T04:28:37;9.80;99.90
44894;DHT22;30625;52.206;21.030;2023-04-15T04:31:05;9.00;99.90
44894;DHT22;30625;52.206;21.030;2023-04-15T04:33:31;9.00;99.90
44894;DHT22;30625;52.206;21.030;2023-04-15T04:35:56;9.10;99.90
44894;DHT22;30625;52.206;21.030;2023-04-15T04:38:22;9.20;99.90
44894;DHT22;30625;52.206;21.030;2023-04-15T04:40:47;9.10;99.90
44894;DHT22;30625;52.206;21.030;2023-04-15T04:43:13;10.30;99.90
44894;DHT22;30625;52.206;21.030;2023-04-15T04:45:40;9.10;99.90
44894;DHT22;30625;52.206;21.030;2023-04-15T04:48:06;9.10;99.90
44894;DHT22;30625;52.206;21.030;2023-04-15T04:50:34;9.20;99.90
44894;DHT22;30625;52.206;21.030;2023-04-15T04:53:00;9.10;99.90
44894;DHT22;30625;52.206;21.030;2023-04-15T04:55:26;9.10;99.90
44894;DHT22;30625;52.206;21.030;2023-04-15T04:57:54;9.60;99.90
44894;DHT22;30625;52.206;21.030;2023-04-15T05:00:20;9.10;99.90
44894;DHT22;30625;52.206;21.030;2023-04-15T05:02:45;10.10;99.90
44894;DHT22;30625;52.206;21.030;2023-04-15T05:05:11;9.30;99.90
44894;DHT22;30625;52.206;21.030;2023-04-15T05:07:37;9.10;99.90
44894;DHT22;30625;52.206;21.030;2023-04-15T05:10:04;9.20;99.90
44894;DHT22;30625;52.206;21.030;2023-04-15T05:12:29;9.10;99.90
44894;DHT22;30625;52.206;21.030;2023-04-15T05:14:55;9.10;99.90
44894;DHT22;30625;52.206;21.030;2023-04-15T05:17:21;9.10;99.90
44894;DHT22;30625;52.206;21.030;2023-04-15T05:19:46;9.20;99.90
44894;DHT22;30625;52.206;21.030;2023-04-15T05:22:12;9.20;99.90
44894;DHT22;30625;52.206;21.030;2023-04-15T05:24:38;9.20;99.90
44894;DHT22;30625;52.206;21.030;2023-04-15T05:27:03;9.10;99.90
44894;DHT22;30625;52.206;21.030;2023-04-15T05:29:29;9.20;99.90
44894;DHT22;30625;52.206;21.030;2023-04-15T05:31:55;9.20;99.90
44894;DHT22;30625;52.206;21.030;2023-04-15T05:34:21;9.20;99.90
44894;DHT22;30625;52.206;21.030;2023-04-15T05:36:46;9.20;99.90
44894;DHT22;30625;52.206;21.030;2023-04-15T05:39:12;9.20;99.90
44894;DHT22;30625;52.206;21.030;2023-04-15T05:41:37;9.20;99.90
44894;DHT22;30625;52.206;21.030;2023-04-15T05:44:03;9.20;99.90
44894;DHT22;30625;52.206;21.030;2023-04-15T05:46:29;9.20;99.90
44894;DHT22;30625;52.206;21.030;2023-04-15T05:48:55;9.20;99.90
44894;DHT22;30625;52.206;21.030;2023-04-15T05:51:20;9.20;99.90
44894;DHT22;30625;52.206;21.030;2023-04-15T05:53:46;9.20;99.90
44894;DHT22;30625;52.206;21.030;2023-04-15T05:56:12;9.30;99.90
44894;DHT22;30625;52.206;21.030;2023-04-15T05:58:37;9.20;99.90
44894;DHT22;30625;52.206;21.030;2023-04-15T06:01:03;9.30;99.90
44894;DHT22;30625;52.206;21.030;2023-04-15T06:03:29;9.40;99.90
44894;DHT22;30625;52.206;21.030;2023-04-15T06:05:54;9.30;99.90
44894;DHT22;30625;52.206;21.030;2023-04-15T06:08:20;10.10;99.90
44894;DHT22;30625;52.206;21.030;2023-04-15T06:10:46;9.30;99.90
44894;DHT22;30625;52.206;21.030;2023-04-15T06:13:12;9.30;99.90
44894;DHT22;30625;52.206;21.030;2023-04-15T06:15:38;9.30;99.90
44894;DHT22;30625;52.206;21.030;2023-04-15T06:18:03;9.70;99.90
44894;DHT22;30625;52.206;21.030;2023-04-15T06:20:29;9.40;99.90
44894;DHT22;30625;52.206;21.030;2023-04-15T06:22:56;9.30;99.90
44894;DHT22;30625;52.206;21.030;2023-04-15T06:25:21;10.90;99.90
44894;DHT22;30625;52.206;21.030;2023-04-15T06:27:47;9.40;99.90
44894;DHT22;30625;52.206;21.030;2023-04-15T06:30:13;9.30;99.90
44894;DHT22;30625;52.206;21.030;2023-04-15T06:32:38;9.20;99.90
44894;DHT22;30625;52.206;21.030;2023-04-15T06:35:04;9.20;99.90
44894;DHT22;30625;52.206;21.030;2023-04-15T06:37:30;9.20;99.90
44894;DHT22;30625;52.206;21.030;2023-04-15T06:39:57;9.20;99.90
44894;DHT22;30625;52.206;21.030;2023-04-15T06:42:22;9.70;99.90
44894;DHT22;30625;52.206;21.030;2023-04-15T06:44:48;9.20;99.90
44894;DHT22;30625;52.206;21.030;2023-04-15T06:47:14;10.70;99.90
44894;DHT22;30625;52.206;21.030;2023-04-15T06:49:40;9.10;99.90
44894;DHT22;30625;52.206;21.030;2023-04-15T06:52:05;9.80;99.90
44894;DHT22;30625;52.206;21.030;2023-04-15T06:54:31;9.10;99.90
44894;DHT22;30625;52.206;21.030;2023-04-15T06:56:57;9.20;99.90
44894;DHT22;30625;52.206;21.030;2023-04-15T06:59:23;10.50;99.90
44894;DHT22;30625;52.206;21.030;2023-04-15T07:01:48;9.20;99.90
44894;DHT22;30625;52.206;21.030;2023-04-15T07:04:14;9.30;99.90
44894;DHT22;30625;52.206;21.030;2023-04-15T07:06:39;9.30;99.90
44894;DHT22;30625;52.206;21.030;2023-04-15T07:09:06;9.30;99.90
44894;DHT22;30625;52.206;21.030;2023-04-15T07:11:33;9.50;99.90
44894;DHT22;30625;52.206;21.030;2023-04-15T07:13:58;9.40;99.90
44894;DHT22;30625;52.206;21.030;2023-04-15T07:16:24;10.30;99.90
44894;DHT22;30625;52.206;21.030;2023-04-15T07:18:50;9.30;99.90
44894;DHT22;30625;52.206;21.030;2023-04-15T07:21:15;9.30;99.90
44894;DHT22;30625;52.206;21.030;2023-04-15T07:23:41;10.60;99.90
44894;DHT22;30625;52.206;21.030;2023-04-15T07:26:07;9.30;99.90
44894;DHT22;30625;52.206;21.030;2023-04-15T07:28:33;9.30;99.90
44894;DHT22;30625;52.206;21.030;2023-04-15T07:30:59;9.20;99.90
44894;DHT22;30625;52.206;21.030;2023-04-15T07:33:25;10.60;99.90
44894;DHT22;30625;52.206;21.030;2023-04-15T07:35:50;9.30;99.90
44894;DHT22;30625;52.206;21.030;2023-04-15T07:38:16;9.20;99.90
44894;DHT22;30625;52.206;21.030;2023-04-15T07:40:42;9.30;99.90
44894;DHT22;30625;52.206;21.030;2023-04-15T07:43:08;9.30;99.90
44894;DHT22;30625;52.206;21.030;2023-04-15T07:45:34;9.40;99.90
44894;DHT22;30625;52.206;21.030;2023-04-15T07:48:00;9.50;99.90
44894;DHT22;30625;52.206;21.030;2023-04-15T07:50:27;9.90;99.90
44894;DHT22;30625;52.206;21.030;2023-04-15T07:52:52;9.50;99.90
44894;DHT22;30625;52.206;21.030;2023-04-15T07:55:18;9.50;99.90
44894;DHT22;30625;52.206;21.030;2023-04-15T07:57:46;9.50;99.90
44894;DHT22;30625;52.206;21.030;2023-04-15T08:00:12;9.50;99.90
44894;DHT22;30625;52.206;21.030;2023-04-15T08:02:41;9.50;99.90
44894;DHT22;30625;52.206;21.030;2023-04-15T08:05:08;9.30;99.90
44894;DHT22;30625;52.206;21.030;2023-04-15T08:07:36;9.40;99.90
44894;DHT22;30625;52.206;21.030;2023-04-15T08:10:02;9.40;99.90
44894;DHT22;30625;52.206;21.030;2023-04-15T08:12:28;9.30;99.90
44894;DHT22;30625;52.206;21.030;2023-04-15T08:14:54;9.30;99.90
44894;DHT22;30625;52.206;21.030;2023-04-15T08:17:21;9.40;99.90
44894;DHT22;30625;52.206;21.030;2023-04-15T08:19:47;9.40;99.90
44894;DHT22;30625;52.206;21.030;2023-04-15T08:24:50;9.40;99.90
44894;DHT22;30625;52.206;21.030;2023-04-15T08:27:22;8.30;99.90
44894;DHT22;30625;52.206;21.030;2023-04-15T08:29:48;9.40;99.90
44894;DHT22;30625;52.206;21.030;2023-04-15T08:32:14;9.30;99.90
44894;DHT22;30625;52.206;21.030;2023-04-15T08:34:40;9.30;99.90
44894;DHT22;30625;52.206;21.030;2023-04-15T08:39:34;9.50;99.90
44894;DHT22;30625;52.206;21.030;2023-04-15T08:42:03;9.50;99.90
44894;DHT22;30625;52.206;21.030;2023-04-15T08:44:34;9.60;99.90
44894;DHT22;30625;52.206;21.030;2023-04-15T08:47:03;10.90;99.90
44894;DHT22;30625;52.206;21.030;2023-04-15T08:49:48;9.50;99.90
44894;DHT22;30625;52.206;21.030;2023-04-15T08:52:46;9.40;99.90
44894;DHT22;30625;52.206;21.030;2023-04-15T08:55:15;8.20;99.90
44894;DHT22;30625;52.206;21.030;2023-04-15T08:57:52;9.50;99.90
44894;DHT22;30625;52.206;21.030;2023-04-15T09:00:18;10.60;99.90
44894;DHT22;30625;52.206;21.030;2023-04-15T09:02:44;9.60;99.90
44894;DHT22;30625;52.206;21.030;2023-04-15T09:05:10;10.50;99.90
44894;DHT22;30625;52.206;21.030;2023-04-15T09:07:35;9.70;99.90
44894;DHT22;30625;52.206;21.030;2023-04-15T09:10:02;9.80;99.90
44894;DHT22;30625;52.206;21.030;2023-04-15T09:12:28;10.90;99.90
44894;DHT22;30625;52.206;21.030;2023-04-15T09:14:54;9.70;99.90
44894;DHT22;30625;52.206;21.030;2023-04-15T09:17:20;9.70;99.90
44894;DHT22;30625;52.206;21.030;2023-04-15T09:19:46;9.80;99.90
44894;DHT22;30625;52.206;21.030;2023-04-15T09:22:12;9.70;99.90
44894;DHT22;30625;52.206;21.030;2023-04-15T09:24:38;9.80;99.90
44894;DHT22;30625;52.206;21.030;2023-04-15T09:27:05;8.40;99.90
44894;DHT22;30625;52.206;21.030;2023-04-15T09:29:31;10.50;99.90
44894;DHT22;30625;52.206;21.030;2023-04-15T09:32:14;9.80;99.90
44894;DHT22;30625;52.206;21.030;2023-04-15T09:34:40;9.90;99.90
44894;DHT22;30625;52.206;21.030;2023-04-15T09:37:06;9.90;99.90
44894;DHT22;30625;52.206;21.030;2023-04-15T09:39:48;9.90;99.90
44894;DHT22;30625;52.206;21.030;2023-04-15T09:42:14;10.00;99.90
44894;DHT22;30625;52.206;21.030;2023-04-15T09:44:42;9.80;99.90
44894;DHT22;30625;52.206;21.030;2023-04-15T09:47:08;9.80;99.90
44894;DHT22;30625;52.206;21.030;2023-04-15T09:49:33;9.80;99.90
44894;DHT22;30625;52.206;21.030;2023-04-15T09:52:00;9.90;99.90
44894;DHT22;30625;52.206;21.030;2023-04-15T09:54:37;9.80;99.90
44894;DHT22;30625;52.206;21.030;2023-04-15T09:57:07;9.90;99.90
44894;DHT22;30625;52.206;21.030;2023-04-15T09:59:34;9.90;99.90
44894;DHT22;30625;52.206;21.030;2023-04-15T10:02:03;9.90;99.90
44894;DHT22;30625;52.206;21.030;2023-04-15T10:04:29;9.90;99.90
44894;DHT22;30625;52.206;21.030;2023-04-15T10:06:56;9.90;99.90
44894;DHT22;30625;52.206;21.030;2023-04-15T10:09:22;10.00;99.90
44894;DHT22;30625;52.206;21.030;2023-04-15T10:11:48;10.60;99.90
44894;DHT22;30625;52.206;21.030;2023-04-15T10:14:14;10.10;99.90
44894;DHT22;30625;52.206;21.030;2023-04-15T10:16:42;10.00;99.90
44894;DHT22;30625;52.206;21.030;2023-04-15T10:19:14;10.10;99.90
44894;DHT22;30625;52.206;21.030;2023-04-15T10:21:43;11.40;99.90
44894;DHT22;30625;52.206;21.030;2023-04-15T10:24:09;10.10;99.90
44894;DHT22;30625;52.206;21.030;2023-04-15T10:26:35;10.20;99.90
44894;DHT22;30625;52.206;21.030;2023-04-15T10:29:01;10.20;99.90
44894;DHT22;30625;52.206;21.030;2023-04-15T10:31:27;10.20;99.90
44894;DHT22;30625;52.206;21.030;2023-04-15T10:33:53;10.90;99.90
44894;DHT22;30625;52.206;21.030;2023-04-15T10:36:20;10.80;99.90
44894;DHT22;30625;52.206;21.030;2023-04-15T10:38:45;10.20;99.90
44894;DHT22;30625;52.206;21.030;2023-04-15T10:41:22;10.10;99.90
44894;DHT22;30625;52.206;21.030;2023-04-15T10:43:53;10.10;99.90
44894;DHT22;30625;52.206;21.030;2023-04-15T10:46:33;10.10;99.90
44894;DHT22;30625;52.206;21.030;2023-04-15T10:49:09;10.30;99.90
44894;DHT22;30625;52.206;21.030;2023-04-15T10:51:38;10.10;99.90
44894;DHT22;30625;52.206;21.030;2023-04-15T10:54:14;10.20;99.90
44894;DHT22;30625;52.206;21.030;2023-04-15T10:57:06;11.20;99.90
44894;DHT22;30625;52.206;21.030;2023-04-15T10:59:36;10.00;99.90
44894;DHT22;30625;52.206;21.030;2023-04-15T11:04:58;9.90;99.90
44894;DHT22;30625;52.206;21.030;2023-04-15T11:12:45;9.90;99.90
44894;DHT22;30625;52.206;21.030;2023-04-15T11:17:51;9.90;99.90
44894;DHT22;30625;52.206;21.030;2023-04-15T11:20:17;9.80;99.90
44894;DHT22;30625;52.206;21.030;2023-04-15T11:22:50;9.80;99.90
44894;DHT22;30625;52.206;21.030;2023-04-15T11:25:30;9.70;99.90
44894;DHT22;30625;52.206;21.030;2023-04-15T11:27:58;9.70;99.90
44894;DHT22;30625;52.206;21.030;2023-04-15T11:30:25;9.80;99.90
44894;DHT22;30625;52.206;21.030;2023-04-15T11:32:52;9.70;99.90
44894;DHT22;30625;52.206;21.030;2023-04-15T11:35:18;9.80;99.90
44894;DHT22;30625;52.206;21.030;2023-04-15T11:37:44;9.80;99.90
44894;DHT22;30625;52.206;21.030;2023-04-15T11:40:11;9.80;99.90
44894;DHT22;30625;52.206;21.030;2023-04-15T11:42:37;9.90;99.90
44894;DHT22;30625;52.206;21.030;2023-04-15T11:45:13;10.00;99.90
44894;DHT22;30625;52.206;21.030;2023-04-15T11:47:41;10.00;99.90
44894;DHT22;30625;52.206;21.030;2023-04-15T11:50:21;10.00;99.90
44894;DHT22;30625;52.206;21.030;2023-04-15T11:52:58;10.20;99.90
44894;DHT22;30625;52.206;21.030;2023-04-15T11:55:25;10.30;99.90
44894;DHT22;30625;52.206;21.030;2023-04-15T12:00:34;10.80;99.90
44894;DHT22;30625;52.206;21.030;2023-04-15T12:03:25;10.80;99.90
44894;DHT22;30625;52.206;21.030;2023-04-15T12:06:11;10.90;99.90
44894;DHT22;30625;52.206;21.030;2023-04-15T12:08:48;10.70;99.90
44894;DHT22;30625;52.206;21.030;2023-04-15T12:11:18;10.70;99.90
44894;DHT22;30625;52.206;21.030;2023-04-15T12:13:49;10.60;99.90
44894;DHT22;30625;52.206;21.030;2023-04-15T12:16:19;10.60;99.90
44894;DHT22;30625;52.206;21.030;2023-04-15T12:18:46;10.40;99.90
44894;DHT22;30625;52.206;21.030;2023-04-15T12:21:12;11.40;99.90
44894;DHT22;30625;52.206;21.030;2023-04-15T12:24:00;10.40;99.90
44894;DHT22;30625;52.206;21.030;2023-04-15T12:26:31;11.70;99.90
44894;DHT22;30625;52.206;21.030;2023-04-15T12:29:05;10.50;99.90
44894;DHT22;30625;52.206;21.030;2023-04-15T12:31:32;10.50;99.90
44894;DHT22;30625;52.206;21.030;2023-04-15T12:33:59;10.50;99.90
44894;DHT22;30625;52.206;21.030;2023-04-15T12:36:26;10.40;99.90
44894;DHT22;30625;52.206;21.030;2023-04-15T12:38:51;10.90;99.90
44894;DHT22;30625;52.206;21.030;2023-04-15T12:41:18;10.50;99.90
44894;DHT22;30625;52.206;21.030;2023-04-15T12:43:44;10.40;99.90
44894;DHT22;30625;52.206;21.030;2023-04-15T12:46:11;10.50;99.90
44894;DHT22;30625;52.206;21.030;2023-04-15T12:48:37;10.40;99.90
44894;DHT22;30625;52.206;21.030;2023-04-15T12:51:02;10.60;99.90
44894;DHT22;30625;52.206;21.030;2023-04-15T12:53:28;10.80;99.90
44894;DHT22;30625;52.206;21.030;2023-04-15T12:55:54;11.40;99.90
44894;DHT22;30625;52.206;21.030;2023-04-15T12:58:20;10.90;99.90
44894;DHT22;30625;52.206;21.030;2023-04-15T13:00:46;10.90;99.90
44894;DHT22;30625;52.206;21.030;2023-04-15T13:03:13;12.20;99.90
44894;DHT22;30625;52.206;21.030;2023-04-15T13:05:39;11.00;99.90
44894;DHT22;30625;52.206;21.030;2023-04-15T13:08:05;10.60;99.90
44894;DHT22;30625;52.206;21.030;2023-04-15T13:10:31;10.50;99.90
44894;DHT22;30625;52.206;21.030;2023-04-15T13:12:57;10.50;99.90
44894;DHT22;30625;52.206;21.030;2023-04-15T13:15:22;10.60;99.90
44894;DHT22;30625;52.206;21.030;2023-04-15T13:17:48;10.80;99.90
44894;DHT22;30625;52.206;21.030;2023-04-15T13:20:15;11.00;99.90
44894;DHT22;30625;52.206;21.030;2023-04-15T13:22:42;11.10;99.90
44894;DHT22;30625;52.206;21.030;2023-04-15T13:25:08;11.10;99.90
44894;DHT22;30625;52.206;21.030;2023-04-15T13:27:34;11.00;99.90
44894;DHT22;30625;52.206;21.030;2023-04-15T13:29:59;10.80;99.90
44894;DHT22;30625;52.206;21.030;2023-04-15T13:32:25;10.80;99.90
44894;DHT22;30625;52.206;21.030;2023-04-15T13:34:51;10.70;99.90
44894;DHT22;30625;52.206;21.030;2023-04-15T13:37:17;11.80;99.90
44894;DHT22;30625;52.206;21.030;2023-04-15T13:39:43;10.70;99.90
44894;DHT22;30625;52.206;21.030;2023-04-15T13:42:08;10.90;99.90
44894;DHT22;30625;52.206;21.030;2023-04-15T13:44:34;10.90;99.90
44894;DHT22;30625;52.206;21.030;2023-04-15T13:47:00;10.10;99.90
44894;DHT22;30625;52.206;21.030;2023-04-15T13:49:26;11.80;99.90
44894;DHT22;30625;52.206;21.030;2023-04-15T13:51:51;10.80;99.90
44894;DHT22;30625;52.206;21.030;2023-04-15T13:54:17;11.50;99.90
44894;DHT22;30625;52.206;21.030;2023-04-15T13:56:43;10.60;99.90
44894;DHT22;30625;52.206;21.030;2023-04-15T13:59:08;10.50;99.90
44894;DHT22;30625;52.206;21.030;2023-04-15T14:01:34;10.70;99.90
44894;DHT22;30625;52.206;21.030;2023-04-15T14:04:00;10.30;99.90
44894;DHT22;30625;52.206;21.030;2023-04-15T14:06:27;10.40;99.90
44894;DHT22;30625;52.206;21.030;2023-04-15T14:08:54;10.40;99.90
44894;DHT22;30625;52.206;21.030;2023-04-15T14:11:20;10.40;99.90
44894;DHT22;30625;52.206;21.030;2023-04-15T14:13:45;10.50;99.90
44894;DHT22;30625;52.206;21.030;2023-04-15T14:16:11;10.50;99.90
44894;DHT22;30625;52.206;21.030;2023-04-15T14:18:38;10.70;99.90
44894;DHT22;30625;52.206;21.030;2023-04-15T14:21:07;10.70;99.90
44894;DHT22;30625;52.206;21.030;2023-04-15T14:23:33;11.60;99.90
44894;DHT22;30625;52.206;21.030;2023-04-15T14:26:00;10.60;99.90
44894;DHT22;30625;52.206;21.030;2023-04-15T14:28:26;10.50;99.90
44894;DHT22;30625;52.206;21.030;2023-04-15T14:30:52;10.50;99.90
44894;DHT22;30625;52.206;21.030;2023-04-15T14:33:18;10.50;99.90
44894;DHT22;30625;52.206;21.030;2023-04-15T14:38:19;10.50;99.90
44894;DHT22;30625;52.206;21.030;2023-04-15T14:40:47;11.30;99.90
44894;DHT22;30625;52.206;21.030;2023-04-15T14:43:15;10.50;99.90
44894;DHT22;30625;52.206;21.030;2023-04-15T14:45:41;10.50;99.90
44894;DHT22;30625;52.206;21.030;2023-04-15T14:48:09;10.60;99.90
44894;DHT22;30625;52.206;21.030;2023-04-15T14:50:42;10.40;99.90
44894;DHT22;30625;52.206;21.030;2023-04-15T14:53:08;10.40;99.90
44894;DHT22;30625;52.206;21.030;2023-04-15T14:55:34;10.40;99.90
44894;DHT22;30625;52.206;21.030;2023-04-15T14:58:00;10.60;99.90
44894;DHT22;30625;52.206;21.030;2023-04-15T15:00:27;10.60;99.90
44894;DHT22;30625;52.206;21.030;2023-04-15T15:02:52;10.70;99.90
44894;DHT22;30625;52.206;21.030;2023-04-15T15:05:18;10.90;99.90
44894;DHT22;30625;52.206;21.030;2023-04-15T15:07:45;10.90;99.90
44894;DHT22;30625;52.206;21.030;2023-04-15T15:10:11;12.10;99.90
44894;DHT22;30625;52.206;21.030;2023-04-15T15:12:39;10.70;99.90
44894;DHT22;30625;52.206;21.030;2023-04-15T15:15:06;10.70;99.90
44894;DHT22;30625;52.206;21.030;2023-04-15T15:17:33;10.50;99.90
44894;DHT22;30625;52.206;21.030;2023-04-15T15:20:00;10.40;99.90
44894;DHT22;30625;52.206;21.030;2023-04-15T15:22:26;10.30;99.90
44894;DHT22;30625;52.206;21.030;2023-04-15T15:24:52;10.40;99.90
44894;DHT22;30625;52.206;21.030;2023-04-15T15:27:23;10.00;99.90
44894;DHT22;30625;52.206;21.030;2023-04-15T15:29:49;10.60;99.90
44894;DHT22;30625;52.206;21.030;2023-04-15T15:32:15;10.60;99.90
44894;DHT22;30625;52.206;21.030;2023-04-15T15:34:41;10.60;99.90
44894;DHT22;30625;52.206;21.030;2023-04-15T15:37:06;10.40;99.90
44894;DHT22;30625;52.206;21.030;2023-04-15T15:39:34;10.40;99.90
44894;DHT22;30625;52.206;21.030;2023-04-15T15:42:00;10.30;99.90